Daglege Rapportar

Klikk her for oppdatering!


Detaljar i dag

12/11/19
Time         Wind Dir   Wind Spd  Wind Gust   Humidity       Temp  Raw Barom   Tot Rain Temp Out H Temp Out L  DailyRain   HourRain
                            mps        mps          %         C         mb         mm         C         C         mm         mm
0:00              179          4          4         61       -1.7    1006.97     733.00       -1.7       -1.7       0.00       0.00
1:00              128          1          4         60       -1.6    1006.83     733.00       -1.5       -1.8       0.00       0.00
1:59              175          1          5         67       -1.7    1006.86     733.00       -1.5       -1.8       0.00       0.00
3:00              189          2          5         65       -1.5    1006.39     733.00       -1.4       -1.8       0.00       0.00
4:00              136          1          4         67       -1.5    1006.12     733.00       -1.4       -1.8       0.00       0.00
5:00              355          1          4         65       -1.3    1005.41     733.00       -1.2       -1.8       0.00       0.00

 


Detaljar i gr

11/11/19
Time         Wind Dir   Wind Spd  Wind Gust   Humidity       Temp  Raw Barom   Tot Rain Temp Out H Temp Out L  DailyRain   HourRain
                            mps        mps          %         C         mb         mm         C         C         mm         mm
0:00              351          0          1         72       -3.7    1014.67     733.00       -3.7       -3.7       0.00       0.00
1:00              316          0          2         69       -3.4    1014.33     733.00       -3.3       -3.8       0.00       0.00
2:00              323          0          1         70       -4.1    1014.16     733.00       -3.3       -4.2       0.00       0.00
3:00                5          0          2         70       -3.7    1013.49     733.00       -3.3       -4.3       0.00       0.00
4:00               67          0          1         68       -4.1    1013.02     733.00       -3.3       -4.3       0.00       0.00
5:00               76          0          0         70       -4.3    1012.20     733.00       -3.3       -4.4       0.00       0.00
6:00              355          0          2         69       -4.7    1011.76     733.00       -3.3       -4.7       0.00       0.00
7:00              351          1          3         64       -3.4    1010.95     733.00       -3.3       -4.8       0.00       0.00
8:00               14          3          4         63       -3.8    1010.78     733.00       -3.3       -4.8       0.00       0.00
9:00              360          0          3         61       -3.7    1010.72     733.00       -3.3       -4.8       0.00       0.00
10:00               5          0          1         65       -4.1    1010.62     733.00       -3.3       -4.8       0.00       0.00
11:00             132          0          3         66       -2.8    1009.97     733.00       -2.8       -4.8       0.00       0.00
12:00             128          1          4         64       -2.3    1009.70     733.00       -2.0       -4.8       0.00       0.00
13:00             142          2          4         61       -0.7    1009.33     733.00       -0.7       -4.8       0.00       0.00
14:00             108          4          5         59       -0.1    1008.82     733.00        0.1       -4.8       0.00       0.00
15:00             133          2          4         58        0.4    1008.18     733.00        0.4       -4.8       0.00       0.00
16:00             127          0          4         62       -1.0    1007.78     733.00        0.4       -4.8       0.00       0.00
17:00              26          0          3         64       -2.1    1007.81     733.00        0.4       -4.8       0.00       0.00
18:00               5          2          3         62       -2.4    1007.61     733.00        0.4       -4.8       0.00       0.00
19:00             337          0          1         62       -2.8    1007.34     733.00        0.4       -4.8       0.00       0.00
20:00              67          0          1         64       -2.3    1007.44     733.00        0.4       -4.8       0.00       0.00
21:00             134          2          5         63       -2.3    1007.10     733.00        0.4       -4.8       0.00       0.00
22:00              89          0          4         65       -2.3    1006.90     733.00        0.4       -4.8       0.00       0.00
23:00             322          1          4         64       -2.4    1007.07     733.00        0.4       -4.8       0.00       0.00